createdAt,value
2024-02-27T00:03:18.701Z,97789.69
2024-02-27T00:08:21.704Z,97689.38
2024-02-27T00:13:24.501Z,97885.25
2024-02-27T00:18:27.536Z,97791.13
2024-02-27T00:23:30.547Z,97753.59
2024-02-27T00:28:33.451Z,97735.50
2024-02-27T00:33:36.384Z,97773.09
2024-02-27T00:38:39.681Z,97888.00
2024-02-27T00:43:42.773Z,97840.44
2024-02-27T00:48:45.639Z,97773.19
2024-02-27T00:53:48.493Z,97746.75
2024-02-27T00:58:51.270Z,97782.81
2024-02-27T01:03:54.095Z,97728.72
2024-02-27T01:08:56.968Z,97871.81
2024-02-27T01:13:59.891Z,97812.25
2024-02-27T01:19:02.924Z,97874.84
2024-02-27T01:24:07.243Z,97874.09
2024-02-27T01:29:10.373Z,97851.34
2024-02-27T01:34:13.634Z,97782.75
2024-02-27T01:39:16.647Z,97875.56
2024-02-27T01:44:19.718Z,97796.38
2024-02-27T01:49:23.550Z,97875.06
2024-02-27T01:54:27.402Z,97835.84
2024-02-27T01:59:30.756Z,97779.72
2024-02-27T02:04:34.318Z,97929.06
2024-02-27T02:09:37.281Z,97859.09
2024-02-27T02:14:40.119Z,97902.13
2024-02-27T02:19:43.053Z,97977.56
2024-02-27T02:24:46.203Z,97845.31
2024-02-27T02:29:49.118Z,97912.31
2024-02-27T02:34:51.975Z,97937.41
2024-02-27T02:39:55.091Z,97990.16
2024-02-27T02:44:57.974Z,97928.97
2024-02-27T02:50:08.981Z,97836.19
2024-02-27T02:55:12.250Z,97919.31
2024-02-27T03:00:15.718Z,97900.25
2024-02-27T03:05:18.761Z,97884.28
2024-02-27T03:10:21.853Z,97980.41
2024-02-27T03:15:24.725Z,97927.16
2024-02-27T03:20:27.712Z,97871.56
2024-02-27T03:25:30.688Z,97962.28
2024-02-27T03:30:33.457Z,97879.59
2024-02-27T03:35:37.548Z,97973.69
2024-02-27T03:40:40.316Z,98018.78
2024-02-27T03:45:43.152Z,98019.63
2024-02-27T03:50:45.977Z,97963.34
2024-02-27T03:55:48.970Z,97990.94
2024-02-27T04:00:52.630Z,98061.38
2024-02-27T04:05:56.753Z,97914.56
2024-02-27T04:10:59.801Z,98008.47
2024-02-27T04:16:03.843Z,97960.50
2024-02-27T04:21:06.872Z,98029.69
2024-02-27T04:26:10.197Z,98108.81
2024-02-27T04:31:13.365Z,98156.03
2024-02-27T04:36:16.419Z,98129.53
2024-02-27T04:41:19.453Z,98128.72
2024-02-27T04:46:22.255Z,98133.47
2024-02-27T04:51:25.008Z,98118.41
2024-02-27T04:56:27.813Z,98060.81
2024-02-27T05:01:30.850Z,98146.75
2024-02-27T05:06:33.895Z,98208.16
2024-02-27T05:11:36.909Z,98021.97
2024-02-27T05:16:40.169Z,98166.47
2024-02-27T05:21:43.085Z,98086.41
2024-02-27T05:26:46.019Z,98094.16
2024-02-27T05:31:48.877Z,98086.16
2024-02-27T05:36:52.230Z,98124.78
2024-02-27T05:41:55.784Z,98079.16
2024-02-27T05:46:58.759Z,98161.06
2024-02-27T05:52:01.699Z,98102.69
2024-02-27T05:57:06.610Z,98254.22
2024-02-27T06:02:09.510Z,98204.22
2024-02-27T06:07:12.980Z,98218.13
2024-02-27T06:12:15.857Z,98314.84
2024-02-27T06:17:18.923Z,98214.19
2024-02-27T06:22:24.042Z,98259.91
2024-02-27T06:27:27.014Z,98198.53
2024-02-27T06:32:29.869Z,98151.31
2024-02-27T06:37:32.652Z,98223.63
2024-02-27T06:42:38.324Z,98240.22
2024-02-27T06:47:43.910Z,98265.16
2024-02-27T06:52:46.773Z,98198.44
2024-02-27T06:57:51.310Z,98313.31
2024-02-27T07:02:54.357Z,98315.63
2024-02-27T07:07:57.124Z,98373.03
2024-02-27T07:13:00.130Z,98335.22
2024-02-27T07:18:03.962Z,98316.50
2024-02-27T07:23:06.932Z,98314.28
2024-02-27T07:28:16.915Z,98322.13
2024-02-27T07:33:24.991Z,98346.84
2024-02-27T07:38:27.848Z,98379.84
2024-02-27T07:43:30.761Z,98416.06
2024-02-27T07:48:33.995Z,98357.41
2024-02-27T07:53:36.966Z,98347.75
2024-02-27T07:58:40.283Z,98424.53
2024-02-27T08:03:43.522Z,98384.44
2024-02-27T08:08:46.545Z,98389.84
2024-02-27T08:13:49.705Z,98347.91
2024-02-27T08:18:52.991Z,98439.97
2024-02-27T08:23:55.985Z,98369.88
2024-02-27T08:28:58.789Z,98353.47
2024-02-27T08:34:05.747Z,98284.78
2024-02-27T08:39:10.722Z,98295.91
2024-02-27T08:44:13.714Z,98382.78
2024-02-27T08:49:16.858Z,98442.34
2024-02-27T08:54:19.755Z,98419.22
2024-02-27T08:59:23.531Z,98418.53
2024-02-27T09:04:26.602Z,98395.28
2024-02-27T09:09:29.693Z,98394.50
2024-02-27T09:14:33.555Z,98304.00
2024-02-27T09:19:37.164Z,98394.56
2024-02-27T09:24:40.143Z,98465.38
2024-02-27T09:29:44.827Z,98398.19
2024-02-27T09:34:48.307Z,98372.50
2024-02-27T09:39:58.054Z,98479.47
2024-02-27T09:45:09.660Z,98613.44
2024-02-27T09:50:20.099Z,98507.69
2024-02-27T09:55:25.160Z,98391.97
2024-02-27T10:00:28.274Z,98475.34
2024-02-27T10:05:31.557Z,98410.16
2024-02-27T10:10:34.617Z,98515.19
2024-02-27T10:15:37.796Z,98418.81
2024-02-27T10:20:44.712Z,98470.31
2024-02-27T10:25:47.859Z,98484.78
2024-02-27T10:30:54.351Z,98481.66
2024-02-27T10:35:58.190Z,98548.50
2024-02-27T10:41:01.581Z,98517.06
2024-02-27T10:46:04.636Z,98537.00
2024-02-27T10:51:08.029Z,98527.56
2024-02-27T10:56:11.307Z,98562.94
2024-02-27T11:01:16.192Z,98561.03
2024-02-27T11:06:24.961Z,98605.59
2024-02-27T11:11:28.450Z,98617.53
2024-02-27T11:16:32.853Z,98550.72
2024-02-27T11:21:36.961Z,98661.09
2024-02-27T11:26:40.505Z,98530.59
2024-02-27T11:31:45.126Z,98644.41
2024-02-27T11:37:12.376Z,98592.63
2024-02-27T11:42:37.377Z,98584.75
2024-02-27T11:47:49.799Z,98593.06
2024-02-27T11:52:52.746Z,98472.22
2024-02-27T11:57:58.175Z,98488.34
2024-02-27T12:03:01.526Z,98486.31
2024-02-27T12:08:05.980Z,98507.56
2024-02-27T12:13:10.149Z,98513.13
2024-02-27T12:18:13.515Z,98534.38
2024-02-27T12:23:16.536Z,98454.44
2024-02-27T12:28:19.765Z,98498.56
2024-02-27T12:33:22.910Z,98428.91
2024-02-27T12:38:26.825Z,98509.19
2024-02-27T12:43:29.886Z,98545.03
2024-02-27T12:48:33.203Z,98386.72
2024-02-27T12:53:36.212Z,98565.53
2024-02-27T12:58:41.977Z,98580.88
2024-02-27T13:03:45.137Z,98524.97
2024-02-27T13:08:49.147Z,98578.50
2024-02-27T13:13:52.154Z,98631.28
2024-02-27T13:18:56.053Z,98494.25
2024-02-27T13:24:04.069Z,98606.88
2024-02-27T13:29:06.993Z,98469.06
2024-02-27T13:34:09.927Z,98498.97
2024-02-27T13:39:13.158Z,98539.38
2024-02-27T13:44:17.723Z,98598.06
2024-02-27T13:49:21.584Z,98499.72
2024-02-27T13:54:24.537Z,98576.13
2024-02-27T13:59:27.947Z,98573.25
2024-02-27T14:04:31.074Z,98526.09
2024-02-27T14:09:34.229Z,98543.09
2024-02-27T14:14:41.055Z,98524.97
2024-02-27T14:19:44.172Z,98483.63
2024-02-27T14:24:47.477Z,98435.22
2024-02-27T14:29:50.511Z,98483.25
2024-02-27T14:34:53.901Z,98443.84
2024-02-27T14:39:56.890Z,98432.78
2024-02-27T14:44:59.930Z,98547.78
2024-02-27T14:50:05.870Z,98511.53
2024-02-27T14:55:08.905Z,98639.97
2024-02-27T15:00:13.088Z,98538.34
2024-02-27T15:05:17.684Z,98494.28
2024-02-27T15:10:20.880Z,98593.88
2024-02-27T15:15:23.723Z,98563.56
2024-02-27T15:20:26.493Z,98557.63
2024-02-27T15:25:29.363Z,98554.88
2024-02-27T15:30:32.400Z,98536.75
2024-02-27T15:35:35.253Z,98552.47
2024-02-27T15:40:38.169Z,98472.06
2024-02-27T15:45:42.292Z,98476.00
2024-02-27T15:50:45.200Z,98491.69
2024-02-27T15:55:48.191Z,98532.97
2024-02-27T16:00:51.148Z,98597.19
2024-02-27T16:06:00.612Z,98561.13
2024-02-27T16:11:03.642Z,98506.31
2024-02-27T16:16:07.123Z,98568.91
2024-02-27T16:21:21.165Z,98512.91
2024-02-27T16:26:24.146Z,98547.63
2024-02-27T16:31:29.263Z,98558.19
2024-02-27T16:36:32.218Z,98595.56
2024-02-27T16:41:35.968Z,98550.22
2024-02-27T16:46:38.985Z,98574.25
2024-02-27T16:51:41.991Z,98570.28
2024-02-27T16:56:44.808Z,98564.72
2024-02-27T17:01:47.812Z,98579.28
2024-02-27T17:06:50.825Z,98629.59
2024-02-27T17:11:53.732Z,98585.94
2024-02-27T17:16:56.723Z,98635.97
2024-02-27T17:21:59.694Z,98623.63
2024-02-27T17:27:02.662Z,98621.31
2024-02-27T17:32:06.072Z,98594.19
2024-02-27T17:37:11.605Z,98611.91
2024-02-27T17:42:14.748Z,98703.34
2024-02-27T17:47:18.985Z,98652.81
2024-02-27T17:52:24.423Z,98597.63
2024-02-27T17:57:27.259Z,98737.06
2024-02-27T18:02:30.189Z,98733.16
2024-02-27T18:07:33.034Z,98719.47
2024-02-27T18:12:36.166Z,98679.66
2024-02-27T18:17:42.324Z,98744.41
2024-02-27T18:22:46.153Z,98772.06
2024-02-27T18:27:49.100Z,98686.41
2024-02-27T18:32:52.007Z,98748.13
2024-02-27T18:37:54.853Z,98671.63
2024-02-27T18:42:59.295Z,98716.53
2024-02-27T18:48:02.278Z,98768.44
2024-02-27T18:53:06.418Z,98654.16
2024-02-27T18:58:09.885Z,98702.19
2024-02-27T19:03:12.808Z,98661.19
2024-02-27T19:08:17.135Z,98637.44
2024-02-27T19:13:20.780Z,98755.34
2024-02-27T19:18:23.951Z,98692.63
2024-02-27T19:23:26.945Z,98737.13
2024-02-27T19:28:29.942Z,98624.88
2024-02-27T19:33:32.822Z,98729.72
2024-02-27T19:38:37.034Z,98705.91
2024-02-27T19:43:40.118Z,98677.38
2024-02-27T19:48:43.172Z,98751.03
2024-02-27T19:53:47.174Z,98783.69
2024-02-27T19:58:50.408Z,98611.69
2024-02-27T20:03:53.409Z,98794.31
2024-02-27T20:08:56.556Z,98718.63
2024-02-27T20:13:59.859Z,98804.63
2024-02-27T20:19:02.661Z,98707.84
2024-02-27T20:24:06.007Z,98804.00
2024-02-27T20:29:09.034Z,98796.16
2024-02-27T20:34:12.336Z,98760.34
2024-02-27T20:39:15.243Z,98846.66
2024-02-27T20:44:18.090Z,98764.31
2024-02-27T20:49:21.177Z,98823.78
2024-02-27T20:54:24.067Z,98820.75
2024-02-27T20:59:27.125Z,98826.63
2024-02-27T21:04:30.288Z,98669.22
2024-02-27T21:09:33.914Z,98817.28
2024-02-27T21:14:38.089Z,98895.16
2024-02-27T21:19:41.534Z,98857.66
2024-02-27T21:24:44.531Z,98820.81
2024-02-27T21:29:47.528Z,98791.50
2024-02-27T21:34:50.435Z,98868.28
2024-02-27T21:39:54.297Z,98915.56
2024-02-27T21:44:57.471Z,98837.66
2024-02-27T21:50:00.237Z,98802.47
2024-02-27T21:55:03.278Z,98850.41
2024-02-27T22:00:10.009Z,98876.03
2024-02-27T22:05:12.865Z,98851.94
2024-02-27T22:10:15.943Z,98868.56
2024-02-27T22:15:18.785Z,98867.00
2024-02-27T22:20:21.814Z,98927.28
2024-02-27T22:25:24.585Z,98865.53
2024-02-27T22:30:27.517Z,98816.31
2024-02-27T22:35:30.354Z,98915.94
2024-02-27T22:40:33.499Z,98800.31
2024-02-27T22:45:41.123Z,98883.25
2024-02-27T22:50:44.401Z,98926.16
2024-02-27T22:55:47.208Z,98925.00
2024-02-27T23:00:50.490Z,98963.69
2024-02-27T23:05:53.486Z,98866.31
2024-02-27T23:10:56.371Z,98976.41
2024-02-27T23:15:59.348Z,98831.50
2024-02-27T23:21:03.637Z,98968.75
2024-02-27T23:26:06.659Z,98897.97
2024-02-27T23:31:09.521Z,98974.16
2024-02-27T23:36:13.207Z,98981.50
2024-02-27T23:41:16.236Z,99038.44
2024-02-27T23:46:19.292Z,98999.41
2024-02-27T23:51:22.760Z,98977.75
2024-02-27T23:56:25.770Z,98887.28
